createdAt,value
2018-08-04T00:01:00.448Z,27.40
2018-08-04T00:03:28.811Z,27.40
2018-08-04T00:05:57.177Z,27.40
2018-08-04T00:08:25.495Z,27.40
2018-08-04T00:10:53.830Z,27.30
2018-08-04T00:13:22.191Z,27.40
2018-08-04T00:15:50.540Z,27.30
2018-08-04T00:18:18.852Z,27.30
2018-08-04T00:20:47.172Z,27.30
2018-08-04T00:23:15.462Z,27.20
2018-08-04T00:25:43.828Z,27.20
2018-08-04T00:28:12.169Z,27.20
2018-08-04T00:30:40.524Z,27.20
2018-08-04T00:33:08.863Z,27.20
2018-08-04T00:35:37.203Z,27.20
2018-08-04T00:40:28.785Z,27.10
2018-08-04T00:42:57.141Z,27.10
2018-08-04T00:45:25.534Z,27.00
2018-08-04T00:47:53.869Z,27.00
2018-08-04T00:50:22.250Z,27.00
2018-08-04T00:52:50.706Z,27.00
2018-08-04T00:55:19.088Z,27.00
2018-08-04T01:02:43.668Z,26.90
2018-08-04T01:05:12.020Z,26.80
2018-08-04T01:07:40.339Z,26.90
2018-08-04T01:10:08.700Z,26.90
2018-08-04T01:12:37.728Z,26.90
2018-08-04T01:17:34.122Z,26.90
2018-08-04T01:20:05.310Z,26.80
2018-08-04T01:25:02.765Z,26.70
2018-08-04T01:27:31.336Z,26.70
2018-08-04T01:29:59.684Z,26.60
2018-08-04T01:32:27.995Z,26.60
2018-08-04T01:34:56.584Z,26.60
2018-08-04T01:37:25.008Z,26.60
2018-08-04T01:39:53.409Z,26.50
2018-08-04T01:42:21.751Z,26.50
2018-08-04T01:47:18.445Z,26.60
2018-08-04T01:49:46.843Z,26.50
2018-08-04T01:52:15.150Z,26.50
2018-08-04T01:54:43.490Z,26.50
2018-08-04T01:57:11.825Z,26.40
2018-08-04T01:59:40.153Z,26.50
2018-08-04T02:02:08.541Z,26.40
2018-08-04T02:04:36.888Z,26.40
2018-08-04T02:07:05.392Z,26.40
2018-08-04T02:09:33.760Z,26.30
2018-08-04T02:12:02.071Z,26.30
2018-08-04T02:16:58.493Z,26.30
2018-08-04T02:19:26.909Z,26.20
2018-08-04T02:24:23.303Z,26.20
2018-08-04T02:26:51.665Z,26.20
2018-08-04T02:29:20.079Z,26.20
2018-08-04T02:31:48.412Z,26.20
2018-08-04T02:34:16.733Z,26.20
2018-08-04T02:36:45.133Z,26.10
2018-08-04T02:39:13.443Z,26.00
2018-08-04T02:41:41.783Z,26.00
2018-08-04T02:44:10.085Z,25.90
2018-08-04T02:51:34.517Z,25.80
2018-08-04T02:54:02.828Z,25.80
2018-08-04T02:56:31.173Z,25.70
2018-08-04T02:58:59.486Z,25.60
2018-08-04T03:01:28.312Z,25.60
2018-08-04T03:03:56.607Z,25.50
2018-08-04T03:06:24.991Z,25.50
2018-08-04T03:08:53.327Z,25.50
2018-08-04T03:11:21.712Z,25.50
2018-08-04T03:13:50.072Z,25.50
2018-08-04T03:16:18.424Z,25.40
2018-08-04T03:18:46.787Z,25.30
2018-08-04T03:21:15.193Z,25.30
2018-08-04T03:23:43.545Z,25.30
2018-08-04T03:26:11.880Z,25.30
2018-08-04T03:28:40.229Z,25.30
2018-08-04T03:31:08.583Z,25.30
2018-08-04T03:33:37.944Z,25.20
2018-08-04T03:36:06.320Z,25.20
2018-08-04T03:38:34.682Z,25.30
2018-08-04T03:41:03.097Z,25.30
2018-08-04T03:48:27.525Z,25.20
2018-08-04T03:53:23.947Z,25.20
2018-08-04T04:00:48.403Z,25.10
2018-08-04T04:03:16.735Z,25.00
2018-08-04T04:05:45.114Z,25.00
2018-08-04T04:08:13.497Z,25.10
2018-08-04T04:10:41.863Z,25.10
2018-08-04T04:13:10.260Z,25.20
2018-08-04T04:18:07.291Z,25.20
2018-08-04T04:20:35.627Z,25.20
2018-08-04T04:23:03.967Z,25.10
2018-08-04T04:25:32.368Z,25.20
2018-08-04T04:30:28.696Z,25.10
2018-08-04T04:32:57.083Z,25.10
2018-08-04T04:37:54.151Z,25.00
2018-08-04T04:40:22.512Z,24.90
2018-08-04T04:42:50.869Z,24.90
2018-08-04T04:45:19.216Z,25.00
2018-08-04T04:47:47.572Z,25.00
2018-08-04T04:50:15.951Z,25.10
2018-08-04T04:52:44.484Z,25.10
2018-08-04T04:55:12.810Z,25.00
2018-08-04T05:00:09.222Z,25.00
2018-08-04T05:02:37.795Z,25.00
2018-08-04T05:05:07.529Z,25.00
2018-08-04T05:07:35.873Z,24.90
2018-08-04T05:10:04.391Z,24.80
2018-08-04T05:12:32.720Z,24.80
2018-08-04T05:15:01.129Z,24.90
2018-08-04T05:17:29.441Z,24.70
2018-08-04T05:22:25.787Z,24.80
2018-08-04T05:27:22.213Z,24.90
2018-08-04T05:32:18.592Z,24.90
2018-08-04T05:34:46.927Z,24.90
2018-08-04T05:37:15.263Z,25.00
2018-08-04T05:39:43.574Z,25.10
2018-08-04T05:42:11.929Z,25.20
2018-08-04T05:44:40.240Z,25.40
2018-08-04T05:47:08.597Z,25.30
2018-08-04T05:49:37.020Z,25.30
2018-08-04T05:54:33.727Z,25.40
2018-08-04T05:57:02.076Z,25.40
2018-08-04T05:59:30.415Z,25.40
2018-08-04T06:01:58.852Z,25.30
2018-08-04T06:04:27.249Z,25.40
2018-08-04T06:06:55.623Z,25.50
2018-08-04T06:09:23.956Z,25.50
2018-08-04T06:14:20.329Z,25.50
2018-08-04T06:16:48.655Z,25.50
2018-08-04T06:19:16.990Z,25.50
2018-08-04T06:21:45.387Z,25.60
2018-08-04T06:24:13.714Z,25.70
2018-08-04T06:26:42.056Z,25.80
2018-08-04T06:29:10.417Z,25.80
2018-08-04T06:31:38.767Z,25.80
2018-08-04T06:34:07.434Z,25.90
2018-08-04T06:39:05.443Z,26.20
2018-08-04T06:41:33.982Z,26.10
2018-08-04T06:44:02.414Z,26.20
2018-08-04T06:46:30.822Z,26.30
2018-08-04T06:48:59.247Z,26.40
2018-08-04T06:51:27.640Z,26.40
2018-08-04T06:53:55.969Z,26.50
2018-08-04T06:56:24.292Z,26.50
2018-08-04T06:58:52.954Z,26.50
2018-08-04T07:03:49.386Z,26.80
2018-08-04T07:06:17.783Z,27.00
2018-08-04T07:11:14.318Z,27.20
2018-08-04T07:16:10.947Z,27.50
2018-08-04T07:18:39.386Z,27.50
2018-08-04T07:21:07.836Z,27.50
2018-08-04T07:26:04.327Z,27.70
2018-08-04T07:28:34.126Z,27.80
2018-08-04T07:31:03.855Z,27.90
2018-08-04T07:33:34.090Z,28.00
2018-08-04T07:36:03.928Z,28.10
2018-08-04T07:38:33.523Z,28.20
2018-08-04T07:41:02.130Z,28.40
2018-08-04T07:43:30.453Z,28.40
2018-08-04T07:45:58.772Z,28.50
2018-08-04T07:48:27.099Z,28.60
2018-08-04T07:50:55.419Z,28.70
2018-08-04T07:53:23.743Z,28.80
2018-08-04T07:55:52.079Z,29.00
2018-08-04T07:58:20.404Z,29.10
2018-08-04T08:00:48.724Z,29.10
2018-08-04T08:03:17.058Z,29.10
2018-08-04T08:05:45.427Z,29.30
2018-08-04T08:08:13.760Z,29.40
2018-08-04T08:10:42.434Z,29.50
2018-08-04T08:13:10.885Z,29.60
2018-08-04T08:15:39.163Z,29.70
2018-08-04T08:18:07.504Z,29.80
2018-08-04T08:23:03.920Z,30.20
2018-08-04T08:25:32.210Z,30.30
2018-08-04T08:28:00.532Z,30.50
2018-08-04T08:30:28.855Z,30.60
2018-08-04T08:32:57.415Z,30.70
2018-08-04T08:35:26.169Z,30.80
2018-08-04T08:37:54.503Z,30.90
2018-08-04T08:40:22.861Z,31.00
2018-08-04T08:42:51.173Z,31.20
2018-08-04T08:50:16.894Z,31.40
2018-08-04T08:52:45.237Z,31.40
2018-08-04T08:55:13.547Z,31.50
2018-08-04T08:57:41.856Z,31.60
2018-08-04T09:02:39.164Z,31.70
2018-08-04T09:05:08.499Z,31.70
2018-08-04T09:07:36.819Z,31.80
2018-08-04T09:10:07.998Z,31.80
2018-08-04T09:12:36.438Z,31.90
2018-08-04T09:15:05.286Z,31.80
2018-08-04T09:17:33.676Z,32.00
2018-08-04T09:20:02.052Z,32.00
2018-08-04T09:22:30.364Z,31.90
2018-08-04T09:27:27.068Z,32.20
2018-08-04T09:29:55.503Z,32.30
2018-08-04T09:32:23.880Z,32.40
2018-08-04T09:34:52.255Z,32.60
2018-08-04T09:37:20.596Z,32.60
2018-08-04T09:39:49.009Z,32.70
2018-08-04T09:42:17.294Z,32.70
2018-08-04T09:47:13.683Z,32.70
2018-08-04T09:49:42.024Z,32.70
2018-08-04T09:54:38.473Z,32.80
2018-08-04T09:59:34.838Z,33.00
2018-08-04T10:02:08.677Z,33.00
2018-08-04T10:04:37.092Z,33.00
2018-08-04T10:12:02.979Z,33.10
2018-08-04T10:14:31.970Z,33.20
2018-08-04T10:17:00.428Z,33.20
2018-08-04T10:21:56.848Z,33.30
2018-08-04T10:24:25.234Z,33.40
2018-08-04T10:29:21.563Z,33.50
2018-08-04T10:31:49.906Z,33.60
2018-08-04T10:36:46.783Z,33.60
2018-08-04T10:39:15.096Z,33.70
2018-08-04T10:41:43.423Z,33.80
2018-08-04T10:44:11.754Z,33.90
2018-08-04T10:49:08.289Z,34.20
2018-08-04T10:51:36.664Z,34.20
2018-08-04T10:54:05.027Z,34.20
2018-08-04T10:56:33.359Z,34.10
2018-08-04T11:01:29.764Z,34.30
2018-08-04T11:03:58.453Z,34.40
2018-08-04T11:06:27.651Z,34.60
2018-08-04T11:08:56.355Z,34.80
2018-08-04T11:13:53.446Z,34.60
2018-08-04T11:16:22.041Z,34.40
2018-08-04T11:18:51.920Z,34.40
2018-08-04T11:23:49.023Z,34.10
2018-08-04T11:26:17.423Z,34.20
2018-08-04T11:28:45.815Z,34.10
2018-08-04T11:31:14.118Z,34.20
2018-08-04T11:36:10.451Z,34.20
2018-08-04T11:41:14.363Z,34.10
2018-08-04T11:43:42.688Z,34.00
2018-08-04T11:46:11.352Z,33.90
2018-08-04T11:48:39.666Z,34.00
2018-08-04T11:51:08.023Z,34.00
2018-08-04T11:53:36.335Z,34.00
2018-08-04T11:56:04.776Z,34.10
2018-08-04T11:58:33.111Z,34.20
2018-08-04T12:01:01.462Z,34.20
2018-08-04T12:03:29.842Z,34.40
2018-08-04T12:05:58.325Z,34.30
2018-08-04T12:08:27.278Z,34.30
2018-08-04T12:10:55.626Z,34.20
2018-08-04T12:13:24.170Z,34.10
2018-08-04T12:15:52.529Z,34.10
2018-08-04T12:18:20.893Z,34.30
2018-08-04T12:20:49.242Z,34.40
2018-08-04T12:23:17.925Z,34.50
2018-08-04T12:25:46.363Z,34.40
2018-08-04T12:28:14.692Z,34.40
2018-08-04T12:30:43.167Z,34.30
2018-08-04T12:33:11.530Z,34.40
2018-08-04T12:35:39.874Z,34.50
2018-08-04T12:38:08.158Z,34.70
2018-08-04T12:40:36.526Z,34.90
2018-08-04T12:43:04.887Z,34.90
2018-08-04T12:45:33.270Z,35.10
2018-08-04T12:48:01.571Z,35.30
2018-08-04T12:50:29.903Z,35.20
2018-08-04T12:52:58.182Z,35.50
2018-08-04T12:55:26.650Z,35.70
2018-08-04T12:57:55.031Z,35.80
2018-08-04T13:00:23.366Z,35.80
2018-08-04T13:02:51.639Z,36.00
2018-08-04T13:05:20.017Z,36.30
2018-08-04T13:07:48.331Z,36.40
2018-08-04T13:10:16.695Z,36.00
2018-08-04T13:12:45.024Z,36.40
2018-08-04T13:15:13.405Z,36.60
2018-08-04T13:17:41.715Z,36.50
2018-08-04T13:20:10.162Z,36.70
2018-08-04T13:22:38.729Z,37.00
2018-08-04T13:25:07.084Z,36.90
2018-08-04T13:27:35.394Z,36.90
2018-08-04T13:30:03.796Z,37.10
2018-08-04T13:32:32.130Z,37.40
2018-08-04T13:35:00.519Z,37.80
2018-08-04T13:37:29.786Z,38.20
2018-08-04T13:39:58.274Z,38.40
2018-08-04T13:42:26.627Z,38.80
2018-08-04T13:44:54.968Z,38.50
2018-08-04T13:47:23.319Z,38.20
2018-08-04T13:49:51.683Z,38.10
2018-08-04T13:52:20.071Z,38.10
2018-08-04T13:54:48.758Z,37.90
2018-08-04T13:57:17.114Z,38.70
2018-08-04T13:59:45.469Z,38.70
2018-08-04T14:02:13.796Z,38.40
2018-08-04T14:04:42.149Z,38.10
2018-08-04T14:07:10.483Z,37.90
2018-08-04T14:09:39.735Z,37.80
2018-08-04T14:12:08.199Z,37.40
2018-08-04T14:14:36.673Z,37.30
2018-08-04T14:17:05.118Z,37.40
2018-08-04T14:19:33.544Z,37.40
2018-08-04T14:22:01.928Z,37.80
2018-08-04T14:24:30.386Z,37.80
2018-08-04T14:26:58.824Z,38.10
2018-08-04T14:29:27.135Z,38.70
2018-08-04T14:31:55.528Z,39.20
2018-08-04T14:34:23.962Z,39.90
2018-08-04T14:36:52.393Z,40.20
2018-08-04T14:39:21.015Z,40.60
2018-08-04T14:41:49.381Z,40.20
2018-08-04T14:44:17.852Z,40.40
2018-08-04T14:46:46.194Z,40.00
2018-08-04T14:49:14.560Z,39.20
2018-08-04T14:51:43.002Z,39.10
2018-08-04T14:54:11.412Z,39.20
2018-08-04T14:56:39.729Z,40.20
2018-08-04T14:59:08.065Z,40.50
2018-08-04T15:01:40.322Z,41.10
2018-08-04T15:04:08.699Z,41.70
2018-08-04T15:06:37.067Z,40.70
2018-08-04T15:09:07.864Z,40.30
2018-08-04T15:11:36.286Z,39.60
2018-08-04T15:14:04.628Z,39.30
2018-08-04T15:16:32.974Z,38.90
2018-08-04T15:19:01.499Z,38.70
2018-08-04T15:21:29.892Z,39.70
2018-08-04T15:23:58.171Z,40.60
2018-08-04T15:26:26.480Z,40.60
2018-08-04T15:31:22.858Z,41.00
2018-08-04T15:33:51.225Z,40.30
2018-08-04T15:36:19.639Z,40.60
2018-08-04T15:38:47.965Z,41.10
2018-08-04T15:41:16.382Z,42.00
2018-08-04T15:43:44.738Z,42.30
2018-08-04T15:46:13.171Z,43.30
2018-08-04T15:48:41.447Z,43.50
2018-08-04T15:51:09.758Z,44.70
2018-08-04T15:53:38.072Z,44.60
2018-08-04T15:56:06.409Z,44.30
2018-08-04T15:58:34.793Z,44.80
2018-08-04T16:01:03.120Z,45.30
2018-08-04T16:03:31.424Z,44.40
2018-08-04T16:05:59.770Z,45.40
2018-08-04T16:08:28.149Z,45.50
2018-08-04T16:10:56.456Z,46.20
2018-08-04T16:13:24.747Z,46.10
2018-08-04T16:15:53.094Z,44.40
2018-08-04T16:18:21.484Z,44.70
2018-08-04T16:20:49.794Z,44.90
2018-08-04T16:23:18.145Z,45.10
2018-08-04T16:25:46.451Z,44.60
2018-08-04T16:28:14.807Z,42.80
2018-08-04T16:30:43.083Z,41.60
2018-08-04T16:33:11.432Z,41.60
2018-08-04T16:35:39.739Z,40.70
2018-08-04T16:38:08.046Z,40.50
2018-08-04T16:40:36.331Z,40.10
2018-08-04T16:43:04.652Z,39.80
2018-08-04T16:47:54.259Z,39.60
2018-08-04T16:50:22.552Z,39.00
2018-08-04T16:52:50.878Z,39.10
2018-08-04T16:55:19.175Z,38.60
2018-08-04T16:57:47.500Z,38.10
2018-08-04T17:00:15.812Z,37.90
2018-08-04T17:02:44.130Z,38.10
2018-08-04T17:05:12.448Z,37.30
2018-08-04T17:07:40.851Z,37.20
2018-08-04T17:10:09.957Z,36.70
2018-08-04T17:12:38.405Z,36.50
2018-08-04T17:15:06.728Z,36.30
2018-08-04T17:17:35.066Z,35.90
2018-08-04T17:20:03.638Z,35.80
2018-08-04T17:22:31.966Z,35.70
2018-08-04T17:25:00.275Z,35.50
2018-08-04T17:27:28.663Z,35.60
2018-08-04T17:29:57.040Z,35.50
2018-08-04T17:32:25.352Z,35.60
2018-08-04T17:34:53.676Z,35.30
2018-08-04T17:37:22.129Z,35.20
2018-08-04T17:39:50.421Z,35.10
2018-08-04T17:49:44.817Z,34.50
2018-08-04T17:52:13.388Z,34.50
2018-08-04T17:54:41.765Z,34.40
2018-08-04T17:57:10.456Z,34.20
2018-08-04T17:59:39.126Z,34.10
2018-08-04T18:02:07.885Z,34.00
2018-08-04T18:04:36.695Z,33.80
2018-08-04T18:07:05.088Z,33.90
2018-08-04T18:09:33.415Z,33.90
2018-08-04T18:14:29.801Z,33.90
2018-08-04T18:16:58.182Z,33.80
2018-08-04T18:19:26.503Z,33.60
2018-08-04T18:24:23.463Z,33.40
2018-08-04T18:29:19.915Z,33.10
2018-08-04T18:36:44.474Z,32.90
2018-08-04T18:39:12.881Z,32.90
2018-08-04T18:41:41.222Z,32.80
2018-08-04T18:44:09.572Z,32.70
2018-08-04T18:49:05.937Z,32.60
2018-08-04T18:56:30.372Z,32.30
2018-08-04T18:58:58.755Z,32.20
2018-08-04T19:01:27.127Z,32.20
2018-08-04T19:03:55.468Z,32.20
2018-08-04T19:08:51.818Z,32.00
2018-08-04T19:13:48.243Z,31.80
2018-08-04T19:16:16.642Z,31.80
2018-08-04T19:18:45.025Z,31.70
2018-08-04T19:23:41.412Z,31.60
2018-08-04T19:26:09.753Z,31.50
2018-08-04T19:31:06.335Z,31.40
2018-08-04T19:33:34.636Z,31.40
2018-08-04T19:36:02.972Z,31.30
2018-08-04T19:38:31.329Z,31.30
2018-08-04T19:43:27.750Z,31.30
2018-08-04T19:45:56.116Z,31.30
2018-08-04T19:48:24.478Z,31.20
2018-08-04T19:50:52.819Z,31.20
2018-08-04T19:53:21.135Z,31.20
2018-08-04T19:55:49.439Z,31.10
2018-08-04T19:58:17.772Z,31.10
2018-08-04T20:00:46.125Z,31.00
2018-08-04T20:05:42.803Z,31.00
2018-08-04T20:08:11.123Z,31.00
2018-08-04T20:10:39.475Z,30.90
2018-08-04T20:13:07.788Z,30.90
2018-08-04T20:15:36.088Z,30.80
2018-08-04T20:20:32.976Z,30.70
2018-08-04T20:23:01.292Z,30.70
2018-08-04T20:25:29.652Z,30.70
2018-08-04T20:28:04.844Z,30.70
2018-08-04T20:33:01.236Z,30.50
2018-08-04T20:35:30.488Z,30.50
2018-08-04T20:40:27.107Z,30.40
2018-08-04T20:42:55.529Z,30.50
2018-08-04T20:47:54.781Z,30.30
2018-08-04T20:50:23.122Z,30.30
2018-08-04T20:52:51.591Z,30.30
2018-08-04T20:55:20.003Z,30.30
2018-08-04T20:57:48.700Z,30.20
2018-08-04T21:00:17.241Z,30.30
2018-08-04T21:02:45.549Z,30.20
2018-08-04T21:05:13.994Z,30.30
2018-08-04T21:07:42.395Z,30.30
2018-08-04T21:10:10.751Z,30.20
2018-08-04T21:12:39.110Z,30.00
2018-08-04T21:15:09.237Z,30.00
2018-08-04T21:17:37.679Z,30.20
2018-08-04T21:20:06.007Z,30.10
2018-08-04T21:22:34.384Z,30.00
2018-08-04T21:25:02.723Z,30.00
2018-08-04T21:27:31.195Z,30.00
2018-08-04T21:29:59.550Z,30.00
2018-08-04T21:32:27.863Z,30.00
2018-08-04T21:34:56.182Z,30.00
2018-08-04T21:37:24.557Z,30.00
2018-08-04T21:39:52.986Z,30.00
2018-08-04T21:42:21.287Z,29.90
2018-08-04T21:44:49.776Z,29.90
2018-08-04T21:47:18.170Z,29.90
2018-08-04T21:49:46.555Z,29.90
2018-08-04T21:52:14.983Z,29.80
2018-08-04T21:54:43.340Z,29.80
2018-08-04T21:57:11.665Z,29.80
2018-08-04T21:59:40.010Z,29.70
2018-08-04T22:02:08.450Z,29.50
2018-08-04T22:04:36.729Z,29.50
2018-08-04T22:07:41.463Z,29.40
2018-08-04T22:10:10.335Z,29.30
2018-08-04T22:12:38.886Z,29.10
2018-08-04T22:15:08.007Z,28.90
2018-08-04T22:17:38.350Z,29.10
2018-08-04T22:20:08.061Z,29.10
2018-08-04T22:22:36.924Z,29.00
2018-08-04T22:25:06.365Z,28.90
2018-08-04T22:27:40.027Z,29.00
2018-08-04T22:30:09.942Z,28.90
2018-08-04T22:32:38.451Z,28.80
2018-08-04T22:35:07.238Z,28.80
2018-08-04T22:37:35.899Z,28.70
2018-08-04T22:40:04.551Z,28.70
2018-08-04T22:42:33.358Z,28.60
2018-08-04T22:46:08.111Z,28.50
2018-08-04T22:48:36.565Z,28.50
2018-08-04T22:51:05.533Z,28.30
2018-08-04T22:53:34.167Z,28.40
2018-08-04T22:56:02.618Z,28.40
2018-08-04T22:58:30.921Z,28.40
2018-08-04T23:03:27.464Z,28.20
2018-08-04T23:05:55.871Z,28.20
2018-08-04T23:08:24.238Z,28.20
2018-08-04T23:10:52.583Z,28.00
2018-08-04T23:13:20.937Z,28.00
2018-08-04T23:15:49.326Z,28.00
2018-08-04T23:18:17.639Z,28.00
2018-08-04T23:20:46.004Z,28.00
2018-08-04T23:23:14.544Z,28.00
